createdAt,value
2023-02-14T00:01:14.289Z,102585.38
2023-02-14T00:06:19.436Z,102586.09
2023-02-14T00:11:23.999Z,102587.63
2023-02-14T00:16:28.597Z,102589.97
2023-02-14T00:21:39.030Z,102595.75
2023-02-14T00:26:45.944Z,102601.53
2023-02-14T00:31:51.686Z,102609.84
2023-02-14T00:36:56.407Z,102609.53
2023-02-14T00:42:01.632Z,102608.19
2023-02-14T00:47:06.892Z,102618.06
2023-02-14T00:52:11.568Z,102615.88
2023-02-14T00:57:17.172Z,102626.69
2023-02-14T01:02:23.313Z,102626.13
2023-02-14T01:07:28.827Z,102636.75
2023-02-14T01:12:33.466Z,102637.22
2023-02-14T01:17:38.554Z,102641.38
2023-02-14T01:22:44.099Z,102646.94
2023-02-14T01:27:48.896Z,102650.00
2023-02-14T01:32:53.522Z,102648.75
2023-02-14T01:37:57.771Z,102647.72
2023-02-14T01:43:02.577Z,102654.69
2023-02-14T01:48:07.846Z,102650.44
2023-02-14T01:53:21.589Z,102652.78
2023-02-14T01:58:29.812Z,102672.38
2023-02-14T02:03:43.840Z,102632.03
2023-02-14T02:09:19.737Z,102627.19
2023-02-14T02:14:24.845Z,102633.81
2023-02-14T02:20:24.361Z,102625.63
2023-02-14T02:26:05.913Z,102628.06
2023-02-14T02:31:32.096Z,102618.38
2023-02-14T02:37:24.576Z,102614.63
2023-02-14T02:42:50.821Z,102609.22
2023-02-14T02:48:35.363Z,102606.34
2023-02-14T02:54:03.068Z,102604.31
2023-02-14T02:59:22.291Z,102600.56
2023-02-14T03:04:56.537Z,102603.69
2023-02-14T03:10:24.859Z,102606.78
2023-02-14T03:16:07.853Z,102610.72
2023-02-14T03:21:34.998Z,102601.38
2023-02-14T03:26:43.729Z,102606.94
2023-02-14T03:32:21.257Z,102607.19
2023-02-14T03:37:33.577Z,102618.06
2023-02-14T03:43:17.923Z,102595.03
2023-02-14T03:48:26.497Z,102586.91
2023-02-14T03:53:36.509Z,102604.06
2023-02-14T03:58:45.205Z,102572.34
2023-02-14T04:03:52.141Z,102587.06
2023-02-14T04:08:58.256Z,102563.84
2023-02-14T04:14:03.796Z,102543.31
2023-02-14T04:19:26.547Z,102535.28
2023-02-14T04:24:32.278Z,102519.94
2023-02-14T04:29:37.933Z,102562.72
2023-02-14T04:34:42.890Z,102513.44
2023-02-14T04:39:48.832Z,102509.56
2023-02-14T04:44:53.471Z,102497.84
2023-02-14T04:49:58.070Z,102493.84
2023-02-14T04:55:02.889Z,102487.00
2023-02-14T05:00:08.814Z,102492.88
2023-02-14T05:05:14.932Z,102476.25
2023-02-14T05:10:20.515Z,102500.50
2023-02-14T05:15:26.222Z,102466.28
2023-02-14T05:20:32.721Z,102458.16
2023-02-14T05:25:37.323Z,102454.31
2023-02-14T05:30:43.400Z,102455.66
2023-02-14T05:35:48.062Z,102476.25
2023-02-14T05:40:53.714Z,102447.06
2023-02-14T05:45:59.806Z,102463.91
2023-02-14T05:51:13.150Z,102439.16
2023-02-14T05:56:17.944Z,102445.78
2023-02-14T06:01:23.696Z,102458.63
2023-02-14T06:06:28.389Z,102434.84
2023-02-14T06:11:33.079Z,102433.72
2023-02-14T06:16:39.254Z,102439.81
2023-02-14T06:21:45.637Z,102433.72
2023-02-14T06:26:50.194Z,102427.47
2023-02-14T06:31:55.813Z,102454.44
2023-02-14T06:37:00.605Z,102431.63
2023-02-14T06:42:05.310Z,102423.94
2023-02-14T06:47:10.138Z,102420.75
2023-02-14T06:52:16.172Z,102467.09
2023-02-14T06:57:20.842Z,102475.31
2023-02-14T07:02:26.478Z,102428.53
2023-02-14T07:07:33.932Z,102413.03
2023-02-14T07:12:41.765Z,102410.66
2023-02-14T07:17:47.460Z,102417.88
2023-02-14T07:22:52.434Z,102403.59
2023-02-14T07:27:56.808Z,102404.03
2023-02-14T07:33:02.986Z,102412.88
2023-02-14T07:38:08.591Z,102388.59
2023-02-14T07:43:14.482Z,102389.75
2023-02-14T07:48:19.204Z,102389.91
2023-02-14T07:53:26.140Z,102392.38
2023-02-14T07:58:31.008Z,102437.03
2023-02-14T08:03:36.463Z,102404.06
2023-02-14T08:08:41.092Z,102391.09
2023-02-14T08:13:45.782Z,102383.56
2023-02-14T08:18:50.390Z,102384.91
2023-02-14T08:23:56.709Z,102388.94
2023-02-14T08:29:02.908Z,102380.75
2023-02-14T08:34:08.411Z,102383.03
2023-02-14T08:39:13.081Z,102395.47
2023-02-14T08:44:18.238Z,102389.63
2023-02-14T08:49:22.927Z,102404.94
2023-02-14T08:54:27.497Z,102392.34
2023-02-14T08:59:32.107Z,102390.13
2023-02-14T09:04:37.500Z,102396.00
2023-02-14T09:09:42.135Z,102400.91
2023-02-14T09:14:47.162Z,102400.50
2023-02-14T09:19:51.950Z,102394.81
2023-02-14T09:24:56.572Z,102397.88
2023-02-14T09:30:01.279Z,102390.38
2023-02-14T09:35:06.384Z,102440.44
2023-02-14T09:40:17.368Z,102400.78
2023-02-14T09:45:27.169Z,102416.00
2023-02-14T09:51:01.084Z,102419.19
2023-02-14T09:56:40.057Z,102430.34
2023-02-14T10:02:03.705Z,102431.75
2023-02-14T10:07:30.703Z,102433.16
2023-02-14T10:12:36.266Z,102431.09
2023-02-14T10:17:59.117Z,102448.78
2023-02-14T10:23:12.638Z,102447.28
2023-02-14T10:28:24.577Z,102453.59
2023-02-14T10:33:35.376Z,102453.91
2023-02-14T10:38:45.869Z,102462.81
2023-02-14T10:44:36.503Z,102459.59
2023-02-14T10:50:09.005Z,102460.75
2023-02-14T10:55:32.293Z,102468.91
2023-02-14T11:00:43.820Z,102493.38
2023-02-14T11:05:50.372Z,102490.06
2023-02-14T11:11:04.802Z,102484.13
2023-02-14T11:16:29.091Z,102476.56
2023-02-14T11:21:41.214Z,102484.56
2023-02-14T11:26:54.170Z,102482.09
2023-02-14T11:32:09.157Z,102486.59
2023-02-14T11:37:28.109Z,102484.00
2023-02-14T11:42:39.104Z,102497.22
2023-02-14T11:47:44.426Z,102495.00
2023-02-14T11:52:57.720Z,102521.31
2023-02-14T11:58:07.791Z,102506.72
2023-02-14T12:03:21.184Z,102508.66
2023-02-14T12:08:30.193Z,102511.81
2023-02-14T12:13:35.556Z,102504.47
2023-02-14T12:19:04.730Z,102510.44
2023-02-14T12:24:34.024Z,102514.66
2023-02-14T12:30:01.980Z,102518.63
2023-02-14T12:35:49.047Z,102518.97
2023-02-14T12:41:10.569Z,102550.13
2023-02-14T12:46:24.583Z,102515.44
2023-02-14T12:51:42.420Z,102517.34
2023-02-14T12:56:55.002Z,102530.50
2023-02-14T13:02:27.260Z,102522.91
2023-02-14T13:07:56.154Z,102527.34
2023-02-14T13:13:23.070Z,102521.25
2023-02-14T13:19:15.659Z,102521.09
2023-02-14T13:24:22.231Z,102531.50
2023-02-14T13:29:34.759Z,102561.88
2023-02-14T13:34:46.173Z,102535.09
2023-02-14T13:40:01.982Z,102542.84
2023-02-14T13:45:07.854Z,102528.06
2023-02-14T13:50:23.766Z,102540.06
2023-02-14T13:55:36.830Z,102538.38
2023-02-14T14:00:47.614Z,102546.88
2023-02-14T14:06:03.957Z,102531.19
2023-02-14T14:11:23.891Z,102536.28
2023-02-14T14:16:38.214Z,102538.00
2023-02-14T14:22:01.983Z,102549.28
2023-02-14T14:27:15.848Z,102554.63
2023-02-14T14:32:29.545Z,102551.50
2023-02-14T14:37:37.317Z,102563.88
2023-02-14T14:42:43.161Z,102555.41
2023-02-14T14:47:49.457Z,102592.75
2023-02-14T14:53:02.049Z,102563.50
2023-02-14T14:58:33.031Z,102569.66
2023-02-14T15:03:39.480Z,102566.19
2023-02-14T15:08:45.300Z,102581.72
2023-02-14T15:13:56.829Z,102570.56
2023-02-14T15:19:09.399Z,102581.91
2023-02-14T15:24:17.762Z,102581.09
2023-02-14T15:29:34.827Z,102581.13
2023-02-14T15:34:39.830Z,102611.50
2023-02-14T15:39:49.837Z,102594.34
2023-02-14T15:45:30.795Z,102579.75
2023-02-14T15:50:43.983Z,102578.09
2023-02-14T15:55:53.351Z,102581.59
2023-02-14T16:00:58.524Z,102592.91
2023-02-14T16:06:03.740Z,102586.84
2023-02-14T16:11:17.058Z,102584.13
2023-02-14T16:16:22.867Z,102578.94
2023-02-14T16:21:32.441Z,102579.78
2023-02-14T16:26:41.347Z,102578.91
2023-02-14T16:32:15.570Z,102588.44
2023-02-14T16:37:26.768Z,102580.72
2023-02-14T16:42:32.681Z,102584.31
2023-02-14T16:47:37.675Z,102581.94
2023-02-14T16:52:45.339Z,102593.38
2023-02-14T16:57:54.409Z,102581.47
2023-02-14T17:03:13.178Z,102614.44
2023-02-14T17:08:19.559Z,102583.47
2023-02-14T17:13:28.409Z,102580.84
2023-02-14T17:18:36.746Z,102621.50
2023-02-14T17:23:41.814Z,102598.31
2023-02-14T17:28:50.307Z,102588.91
2023-02-14T17:33:56.035Z,102588.97
2023-02-14T17:39:02.650Z,102592.47
2023-02-14T17:44:09.973Z,102600.22
2023-02-14T17:49:14.783Z,102591.59
2023-02-14T17:54:20.979Z,102612.34
2023-02-14T17:59:26.111Z,102658.06
2023-02-14T18:04:31.578Z,102598.59
2023-02-14T18:09:36.481Z,102595.97
2023-02-14T18:14:41.590Z,102608.00
2023-02-14T18:19:48.770Z,102596.75
2023-02-14T18:24:53.888Z,102598.44
2023-02-14T18:29:58.909Z,102664.81
2023-02-14T18:35:03.893Z,102630.34
2023-02-14T18:40:11.079Z,102600.19
2023-02-14T18:45:16.429Z,102605.41
2023-02-14T18:50:23.422Z,102598.56
2023-02-14T18:55:28.814Z,102603.81
2023-02-14T19:00:34.954Z,102648.69
2023-02-14T19:05:40.422Z,102626.28
2023-02-14T19:10:45.546Z,102622.03
2023-02-14T19:15:51.036Z,102623.75
2023-02-14T19:20:57.140Z,102622.00
2023-02-14T19:26:22.114Z,102661.66
2023-02-14T19:31:28.496Z,102626.28
2023-02-14T19:36:34.818Z,102653.91
2023-02-14T19:41:41.374Z,102634.97
2023-02-14T19:46:47.910Z,102622.84
2023-02-14T19:51:54.086Z,102628.88
2023-02-14T19:56:59.132Z,102632.41
2023-02-14T20:02:05.179Z,102623.69
2023-02-14T20:07:11.442Z,102690.09
2023-02-14T20:12:17.157Z,102635.88
2023-02-14T20:17:21.856Z,102632.47
2023-02-14T20:22:27.823Z,102632.50
2023-02-14T20:27:33.681Z,102636.00
2023-02-14T20:32:38.856Z,102639.50
2023-02-14T20:37:43.877Z,102637.78
2023-02-14T20:42:51.173Z,102641.22
2023-02-14T20:47:55.765Z,102640.41
2023-02-14T20:53:00.622Z,102657.66
2023-02-14T20:58:05.682Z,102687.00
2023-02-14T21:03:11.811Z,102674.16
2023-02-14T21:08:19.349Z,102731.03
2023-02-14T21:13:25.799Z,102675.09
2023-02-14T21:18:32.941Z,102670.00
2023-02-14T21:23:38.085Z,102678.59
2023-02-14T21:28:43.149Z,102687.25
2023-02-14T21:33:52.395Z,102691.53
2023-02-14T21:39:01.581Z,102690.63
2023-02-14T21:44:07.761Z,102696.66
2023-02-14T21:49:32.988Z,102713.00
2023-02-14T21:54:38.061Z,102732.78
2023-02-14T21:59:43.142Z,102716.44
2023-02-14T22:04:48.471Z,102724.19
2023-02-14T22:09:54.670Z,102718.19
2023-02-14T22:15:03.228Z,102723.44
2023-02-14T22:20:11.428Z,102733.81
2023-02-14T22:25:16.701Z,102735.56
2023-02-14T22:30:21.937Z,102737.31
2023-02-14T22:35:28.243Z,102751.09
2023-02-14T22:40:33.487Z,102784.66
2023-02-14T22:45:38.816Z,102760.53
2023-02-14T22:50:44.587Z,102763.97
2023-02-14T22:55:49.625Z,102768.25
2023-02-14T23:00:54.571Z,102767.38
2023-02-14T23:06:01.663Z,102773.34
2023-02-14T23:11:19.258Z,102788.84
2023-02-14T23:16:43.432Z,102792.25
2023-02-14T23:21:57.350Z,102796.59
2023-02-14T23:27:02.103Z,102803.47
2023-02-14T23:32:09.660Z,102810.34
2023-02-14T23:37:17.064Z,102836.22
2023-02-14T23:42:22.394Z,102822.41
2023-02-14T23:47:27.515Z,102843.00
2023-02-14T23:52:33.595Z,102873.97
2023-02-14T23:57:39.100Z,102842.84
